Valle Di Nervion — IBPC — position and weather

sailwx.info

Track history (hours):
 
Tides and Currents Weather Stations Pressure Air Temp Water Temp Dewpoint Dewpoint Depression Visibility Wind Speed Wind Dir Waves Ship Positions

Valle Di Nervion

Last reported at 2015-Apr-28 09:20 UTC. Time now 2015-Apr-28 10:20 UTC.
Position N 40°49' E 014°19'.

Length 176 m; draft 9.2 m.

Type: Ship (hazmat cat A). MMSI: 247109500.

Date/timePositionNaut miles runAvg speedWind from/ knotsBaromVisibWave heightAir tempDewpointWater temp
2015-Apr-28 09:20N 40°49' E 014°19'0 0.1
2015-Apr-28 08:29N 40°49' E 014°19'0 0.0
2015-Apr-28 07:29N 40°49' E 014°19'0 0.0
2015-Apr-28 06:23N 40°49' E 014°19'0 0.0
2015-Apr-28 05:32N 40°49' E 014°19'0 0.0
2015-Apr-28 04:29N 40°49' E 014°19'0 0.0
2015-Apr-28 03:32N 40°49' E 014°19'0 0.0
2015-Apr-28 02:26N 40°49' E 014°19'0 0.0
2015-Apr-28 01:32N 40°49' E 014°19'0 0.0
2015-Apr-28 00:26N 40°49' E 014°19'0 0.0
2015-Apr-27 23:32N 40°49' E 014°19'0 0.0
2015-Apr-27 22:26N 40°49' E 014°19'0 0.1
2015-Apr-27 21:32N 40°49' E 014°19'0 0.0
2015-Apr-27 20:11N 40°49' E 014°19'0 0.1
2015-Apr-27 19:29N 40°49' E 014°19'0 0.1
2015-Apr-27 18:23N 40°49' E 014°19'0 0.0
2015-Apr-27 17:14N 40°49' E 014°19'0 0.1
2015-Apr-27 16:23N 40°49' E 014°19'0 0.0
2015-Apr-27 15:29N 40°49' E 014°19'0 0.1
2015-Apr-27 14:29N 40°49' E 014°19'0 0.1
2015-Apr-27 13:29N 40°49' E 014°19'0 0.1
2015-Apr-27 12:32N 40°49' E 014°19'0 0.1
2015-Apr-27 11:26N 40°49' E 014°19'0 0.1
2015-Apr-27 09:29N 40°49' E 014°19'0 0.1
2015-Apr-27 08:08N 40°49' E 014°19'0 0.0
2015-Apr-27 07:26N 40°49' E 014°19'0 0.0
2015-Apr-27 06:23N 40°49' E 014°19'0 0.1
2015-Apr-27 05:29N 40°49' E 014°19'0 0.0
2015-Apr-27 04:32N 40°49' E 014°19'0 0.1
2015-Apr-27 03:29N 40°49' E 014°19'0 0.0
2015-Apr-27 02:31N 40°49' E 014°19'0 0.0
2015-Apr-27 01:31N 40°49' E 014°19'0 0.0
2015-Apr-27 00:25N 40°49' E 014°19'0 0.0
2015-Apr-26 23:28N 40°49' E 014°19'0 0.1
2015-Apr-26 22:28N 40°49' E 014°19'0 0.0
2015-Apr-26 21:28N 40°49' E 014°19'0 0.0
2015-Apr-26 20:28N 40°49' E 014°19'0 0.0
2015-Apr-26 19:31N 40°49' E 014°19'0 0.0
2015-Apr-26 18:31N 40°49' E 014°19'1 1.5
2015-Apr-26 17:33N 40°48' E 014°17'10 9.8
2015-Apr-26 16:33N 40°42' E 014°07'1212.5
2015-Apr-26 15:33N 40°36' E 013°53'1312.5
2015-Apr-26 14:33N 40°30' E 013°38'1712.3
2015-Apr-26 13:11N 40°23' E 013°18'2112.4
2015-Apr-26 11:27N 40°14' E 012°53'15512.5
2015-Apr-25 23:04N 39°06' E 009°52'612.6
2015-Apr-25 22:33N 39°03' E 009°44'1212.1
2015-Apr-25 21:32N 38°59' E 009°29'1212.5
2015-Apr-25 20:33N 39°03' E 009°15'1010.1
2015-Apr-25 19:33N 39°05' E 009°02'0 0.2
2015-Apr-25 18:33N 39°05' E 009°02'0 0.0
2015-Apr-25 17:32N 39°05' E 009°02'0 0.0
2015-Apr-25 16:32N 39°05' E 009°02'0 0.0
2015-Apr-25 15:32N 39°05' E 009°02'0 0.0
2015-Apr-25 14:32N 39°05' E 009°02'0 0.0
2015-Apr-25 13:14N 39°05' E 009°02'0 0.0
2015-Apr-25 12:17N 39°05' E 009°02'0 0.0
2015-Apr-25 11:05N 39°05' E 009°02'0 0.0
2015-Apr-25 09:32N 39°05' E 009°02'0 0.0
2015-Apr-25 06:17N 39°05' E 009°02'0 0.0
2015-Apr-25 05:23N 39°05' E 009°02'0 0.0
2015-Apr-25 04:26N 39°05' E 009°02'0 0.0
2015-Apr-25 02:05N 39°05' E 009°02'0 0.0
2015-Apr-25 00:26N 39°05' E 009°02'0 0.0
2015-Apr-24 23:32N 39°05' E 009°02'0 0.0
2015-Apr-24 22:23N 39°05' E 009°02'0 0.0
2015-Apr-24 20:23N 39°05' E 009°02'0 0.0
2015-Apr-24 19:20N 39°05' E 009°02'0 0.0
2015-Apr-24 18:23N 39°05' E 009°02'0 0.0
2015-Apr-24 17:29N 39°05' E 009°02'0 0.0
2015-Apr-24 16:32N 39°05' E 009°02'0 0.0
2015-Apr-24 15:29N 39°05' E 009°02'0 0.0
2015-Apr-24 14:32N 39°05' E 009°02'0 0.0
2015-Apr-24 13:29N 39°05' E 009°02'2 2.2
2015-Apr-24 12:33N 39°05' E 009°05'1110.6
2015-Apr-24 11:33N 39°01' E 009°17'1413.5
2015-Apr-24 10:31N 39°00' E 009°35'3314.4
2015-Apr-24 08:13N 39°20' E 010°09'1213.8
2015-Apr-24 07:21N 39°31' E 010°18'170 4.2
2015-Apr-22 15:10N 42°07' E 011°44'0 0.1
2015-Apr-22 14:25N 42°07' E 011°44'1 1.4
2015-Apr-22 13:31N 42°06' E 011°44'6 6.2
2015-Apr-22 12:33N 42°05' E 011°36'2512.6
2015-Apr-22 10:33N 42°09' E 011°02'1312.6
2015-Apr-22 09:33N 42°10' E 010°45'2512.4
2015-Apr-22 07:33N 42°15' E 010°13'1211.8
2015-Apr-22 06:30N 42°22' E 009°58'1512.7
2015-Apr-22 05:18N 42°36' E 009°52'912.3
2015-Apr-22 04:33N 42°45' E 009°47'1212.0
2015-Apr-22 03:33N 42°56' E 009°42'1212.1
2015-Apr-22 02:33N 43°08' E 009°41'1312.5
2015-Apr-22 01:32N 43°20' E 009°42'1212.5
2015-Apr-22 00:33N 43°33' E 009°43'1212.3
2015-Apr-21 23:33N 43°45' E 009°47'1212.4
2015-Apr-21 22:33N 43°56' E 009°53'9 9.3
2015-Apr-21 21:33N 44°06' E 009°51'0 0.3
2015-Apr-21 20:32N 44°06' E 009°51'0 0.0
2015-Apr-21 19:31N 44°06' E 009°51'0 0.0
2015-Apr-21 18:31N 44°06' E 009°51'0 0.0
2015-Apr-21 17:31N 44°06' E 009°51'0 0.0
2015-Apr-21 16:31N 44°06' E 009°51'0 0.0
2015-Apr-21 15:31N 44°06' E 009°51'0 0.0
2015-Apr-21 14:31N 44°06' E 009°51'0 0.0
2015-Apr-21 13:31N 44°06' E 009°51'0 0.0
2015-Apr-21 12:31N 44°06' E 009°51'0 0.0
2015-Apr-21 11:31N 44°06' E 009°51'0 0.0
2015-Apr-21 10:31N 44°06' E 009°51'0 0.0
2015-Apr-21 09:31N 44°06' E 009°51'0 0.0
2015-Apr-21 08:31N 44°06' E 009°51'0 0.0
2015-Apr-21 07:31N 44°06' E 009°51'0 0.0
2015-Apr-21 06:31N 44°06' E 009°51'0 0.0
2015-Apr-21 05:31N 44°06' E 009°51'0 0.0
2015-Apr-21 04:31N 44°06' E 009°51'0 0.0
2015-Apr-21 03:31N 44°06' E 009°51'0 0.0
2015-Apr-21 02:31N 44°06' E 009°51'0 0.0
2015-Apr-21 01:25N 44°06' E 009°51'0 0.0
2015-Apr-21 00:28N 44°06' E 009°51'0 0.0
2015-Apr-20 23:31N 44°06' E 009°51'0 0.0
2015-Apr-20 22:31N 44°06' E 009°51'0 0.0
2015-Apr-20 21:31N 44°06' E 009°51'0 0.0
2015-Apr-20 20:28N 44°06' E 009°51'0 0.0
2015-Apr-20 19:31N 44°06' E 009°51'0 0.0
2015-Apr-20 18:31N 44°06' E 009°51'0 0.0
2015-Apr-20 17:31N 44°06' E 009°51'0 0.0
2015-Apr-20 16:31N 44°06' E 009°51'0 0.0
2015-Apr-20 15:28N 44°06' E 009°51'0 0.0
2015-Apr-20 14:31N 44°06' E 009°51'0 0.0
2015-Apr-20 13:31N 44°06' E 009°51'0 0.0
2015-Apr-20 12:33N 44°06' E 009°51'0 0.0
2015-Apr-20 11:30N 44°06' E 009°51'0 0.0
2015-Apr-20 10:33N 44°06' E 009°51'0 0.0
2015-Apr-20 09:33N 44°06' E 009°51'0 0.0
2015-Apr-20 08:30N 44°06' E 009°51'0 0.0
2015-Apr-20 07:33N 44°06' E 009°51'0 0.0
2015-Apr-20 06:33N 44°06' E 009°51'0 0.0
2015-Apr-20 05:33N 44°06' E 009°51'0 0.0
2015-Apr-20 04:33N 44°06' E 009°51'0 0.0
2015-Apr-20 03:30N 44°06' E 009°51'0 0.0
2015-Apr-20 02:30N 44°06' E 009°51'0 0.0
2015-Apr-20 01:33N 44°06' E 009°51'0 0.0
2015-Apr-20 00:30N 44°06' E 009°51'0 0.0
2015-Apr-19 23:33N 44°06' E 009°51'0 0.0
2015-Apr-19 22:30N 44°06' E 009°51'0 0.0
2015-Apr-19 21:33N 44°06' E 009°51'0 0.0
2015-Apr-19 20:33N 44°06' E 009°51'0 0.0
2015-Apr-19 19:33N 44°06' E 009°51'0 0.0
2015-Apr-19 18:33N 44°06' E 009°51'0 0.0
2015-Apr-19 17:33N 44°06' E 009°51'0 0.0
2015-Apr-19 16:33N 44°06' E 009°51'0 0.0
2015-Apr-19 15:33N 44°06' E 009°51'0 0.0
2015-Apr-19 14:33N 44°06' E 009°51'0 0.0
2015-Apr-19 13:33N 44°06' E 009°51'0 0.0
2015-Apr-19 12:33N 44°06' E 009°51'0 0.0
2015-Apr-19 11:33N 44°06' E 009°51'0 0.0
2015-Apr-19 10:33N 44°06' E 009°51'0 0.0
2015-Apr-19 09:33N 44°06' E 009°51'0 0.0
2015-Apr-19 08:33N 44°06' E 009°51'0 0.0
2015-Apr-19 07:33N 44°06' E 009°51'0 0.0
2015-Apr-19 06:33N 44°06' E 009°51'0 0.0
2015-Apr-19 05:33N 44°06' E 009°51'0 0.0
2015-Apr-19 04:33N 44°06' E 009°51'0 0.0
2015-Apr-19 03:33N 44°06' E 009°51'0 0.0
2015-Apr-19 02:29N 44°06' E 009°51'0 0.0
2015-Apr-19 01:32N 44°06' E 009°51'0 0.0
2015-Apr-19 00:29N 44°06' E 009°51'0 0.0
2015-Apr-18 23:32N 44°06' E 009°51'0 0.0
2015-Apr-18 22:32N 44°06' E 009°51'0 0.0
2015-Apr-18 21:32N 44°06' E 009°51'2 2.0
2015-Apr-18 20:34N 44°04' E 009°52'8 7.7
2015-Apr-18 19:34N 43°56' E 009°53'1212.1
2015-Apr-18 18:33N 43°44' E 009°48'1212.2
2015-Apr-18 17:34N 43°33' E 009°44'1212.2
2015-Apr-18 16:34N 43°21' E 009°41'2612.4
2015-Apr-18 14:30N 42°55' E 009°41'  
Track history (hours):
 
Tides and Currents Weather Stations Pressure Air Temp Water Temp Dewpoint Dewpoint Depression Visibility Wind Speed Wind Dir Waves Ship Positions

Valle Di Nervion

Last reported at 2015-Apr-28 09:20 UTC. Time now 2015-Apr-28 10:20 UTC.
Position N 40°49' E 014°19'.

Length 176 m; draft 9.2 m.

Type: Ship (hazmat cat A). MMSI: 247109500.

Date/timePositionNaut miles runAvg speedWind from/ knotsBaromVisibWave heightAir tempDewpointWater temp
2015-Apr-28 09:20N 40°49' E 014°19'0 0.1
2015-Apr-28 08:29N 40°49' E 014°19'0 0.0
2015-Apr-28 07:29N 40°49' E 014°19'0 0.0
2015-Apr-28 06:23N 40°49' E 014°19'0 0.0
2015-Apr-28 05:32N 40°49' E 014°19'0 0.0
2015-Apr-28 04:29N 40°49' E 014°19'0 0.0
2015-Apr-28 03:32N 40°49' E 014°19'0 0.0
2015-Apr-28 02:26N 40°49' E 014°19'0 0.0
2015-Apr-28 01:32N 40°49' E 014°19'0 0.0
2015-Apr-28 00:26N 40°49' E 014°19'0 0.0
2015-Apr-27 23:32N 40°49' E 014°19'0 0.0
2015-Apr-27 22:26N 40°49' E 014°19'0 0.1
2015-Apr-27 21:32N 40°49' E 014°19'0 0.0
2015-Apr-27 20:11N 40°49' E 014°19'0 0.1
2015-Apr-27 19:29N 40°49' E 014°19'0 0.1
2015-Apr-27 18:23N 40°49' E 014°19'0 0.0
2015-Apr-27 17:14N 40°49' E 014°19'0 0.1
2015-Apr-27 16:23N 40°49' E 014°19'0 0.0
2015-Apr-27 15:29N 40°49' E 014°19'0 0.1
2015-Apr-27 14:29N 40°49' E 014°19'0 0.1
2015-Apr-27 13:29N 40°49' E 014°19'0 0.1
2015-Apr-27 12:32N 40°49' E 014°19'0 0.1
2015-Apr-27 11:26N 40°49' E 014°19'0 0.1
2015-Apr-27 09:29N 40°49' E 014°19'0 0.1
2015-Apr-27 08:08N 40°49' E 014°19'0 0.0
2015-Apr-27 07:26N 40°49' E 014°19'0 0.0
2015-Apr-27 06:23N 40°49' E 014°19'0 0.1
2015-Apr-27 05:29N 40°49' E 014°19'0 0.0
2015-Apr-27 04:32N 40°49' E 014°19'0 0.1
2015-Apr-27 03:29N 40°49' E 014°19'0 0.0
2015-Apr-27 02:31N 40°49' E 014°19'0 0.0
2015-Apr-27 01:31N 40°49' E 014°19'0 0.0
2015-Apr-27 00:25N 40°49' E 014°19'0 0.0
2015-Apr-26 23:28N 40°49' E 014°19'0 0.1
2015-Apr-26 22:28N 40°49' E 014°19'0 0.0
2015-Apr-26 21:28N 40°49' E 014°19'0 0.0
2015-Apr-26 20:28N 40°49' E 014°19'0 0.0
2015-Apr-26 19:31N 40°49' E 014°19'0 0.0
2015-Apr-26 18:31N 40°49' E 014°19'1 1.5
2015-Apr-26 17:33N 40°48' E 014°17'10 9.8
2015-Apr-26 16:33N 40°42' E 014°07'1212.5
2015-Apr-26 15:33N 40°36' E 013°53'1312.5
2015-Apr-26 14:33N 40°30' E 013°38'1712.3
2015-Apr-26 13:11N 40°23' E 013°18'2112.4
2015-Apr-26 11:27N 40°14' E 012°53'15512.5
2015-Apr-25 23:04N 39°06' E 009°52'612.6
2015-Apr-25 22:33N 39°03' E 009°44'1212.1
2015-Apr-25 21:32N 38°59' E 009°29'1212.5
2015-Apr-25 20:33N 39°03' E 009°15'1010.1
2015-Apr-25 19:33N 39°05' E 009°02'0 0.2
2015-Apr-25 18:33N 39°05' E 009°02'0 0.0
2015-Apr-25 17:32N 39°05' E 009°02'0 0.0
2015-Apr-25 16:32N 39°05' E 009°02'0 0.0
2015-Apr-25 15:32N 39°05' E 009°02'0 0.0
2015-Apr-25 14:32N 39°05' E 009°02'0 0.0
2015-Apr-25 13:14N 39°05' E 009°02'0 0.0
2015-Apr-25 12:17N 39°05' E 009°02'0 0.0
2015-Apr-25 11:05N 39°05' E 009°02'0 0.0
2015-Apr-25 09:32N 39°05' E 009°02'0 0.0
2015-Apr-25 06:17N 39°05' E 009°02'0 0.0
2015-Apr-25 05:23N 39°05' E 009°02'0 0.0
2015-Apr-25 04:26N 39°05' E 009°02'0 0.0
2015-Apr-25 02:05N 39°05' E 009°02'0 0.0
2015-Apr-25 00:26N 39°05' E 009°02'0 0.0
2015-Apr-24 23:32N 39°05' E 009°02'0 0.0
2015-Apr-24 22:23N 39°05' E 009°02'0 0.0
2015-Apr-24 20:23N 39°05' E 009°02'0 0.0
2015-Apr-24 19:20N 39°05' E 009°02'0 0.0
2015-Apr-24 18:23N 39°05' E 009°02'0 0.0
2015-Apr-24 17:29N 39°05' E 009°02'0 0.0
2015-Apr-24 16:32N 39°05' E 009°02'0 0.0
2015-Apr-24 15:29N 39°05' E 009°02'0 0.0
2015-Apr-24 14:32N 39°05' E 009°02'0 0.0
2015-Apr-24 13:29N 39°05' E 009°02'2 2.2
2015-Apr-24 12:33N 39°05' E 009°05'1110.6
2015-Apr-24 11:33N 39°01' E 009°17'1413.5
2015-Apr-24 10:31N 39°00' E 009°35'3314.4
2015-Apr-24 08:13N 39°20' E 010°09'1213.8
2015-Apr-24 07:21N 39°31' E 010°18'170 4.2
2015-Apr-22 15:10N 42°07' E 011°44'0 0.1
2015-Apr-22 14:25N 42°07' E 011°44'1 1.4
2015-Apr-22 13:31N 42°06' E 011°44'6 6.2
2015-Apr-22 12:33N 42°05' E 011°36'2512.6
2015-Apr-22 10:33N 42°09' E 011°02'1312.6
2015-Apr-22 09:33N 42°10' E 010°45'2512.4
2015-Apr-22 07:33N 42°15' E 010°13'1211.8
2015-Apr-22 06:30N 42°22' E 009°58'1512.7
2015-Apr-22 05:18N 42°36' E 009°52'912.3
2015-Apr-22 04:33N 42°45' E 009°47'1212.0
2015-Apr-22 03:33N 42°56' E 009°42'1212.1
2015-Apr-22 02:33N 43°08' E 009°41'1312.5
2015-Apr-22 01:32N 43°20' E 009°42'1212.5
2015-Apr-22 00:33N 43°33' E 009°43'1212.3
2015-Apr-21 23:33N 43°45' E 009°47'1212.4
2015-Apr-21 22:33N 43°56' E 009°53'9 9.3
2015-Apr-21 21:33N 44°06' E 009°51'0 0.3
2015-Apr-21 20:32N 44°06' E 009°51'0 0.0
2015-Apr-21 19:31N 44°06' E 009°51'0 0.0
2015-Apr-21 18:31N 44°06' E 009°51'0 0.0
2015-Apr-21 17:31N 44°06' E 009°51'0 0.0
2015-Apr-21 16:31N 44°06' E 009°51'0 0.0
2015-Apr-21 15:31N 44°06' E 009°51'0 0.0
2015-Apr-21 14:31N 44°06' E 009°51'0 0.0
2015-Apr-21 13:31N 44°06' E 009°51'0 0.0
2015-Apr-21 12:31N 44°06' E 009°51'0 0.0
2015-Apr-21 11:31N 44°06' E 009°51'0 0.0
2015-Apr-21 10:31N 44°06' E 009°51'0 0.0
2015-Apr-21 09:31N 44°06' E 009°51'0 0.0
2015-Apr-21 08:31N 44°06' E 009°51'0 0.0
2015-Apr-21 07:31N 44°06' E 009°51'0 0.0
2015-Apr-21 06:31N 44°06' E 009°51'0 0.0
2015-Apr-21 05:31N 44°06' E 009°51'0 0.0
2015-Apr-21 04:31N 44°06' E 009°51'0 0.0
2015-Apr-21 03:31N 44°06' E 009°51'0 0.0
2015-Apr-21 02:31N 44°06' E 009°51'0 0.0
2015-Apr-21 01:25N 44°06' E 009°51'0 0.0
2015-Apr-21 00:28N 44°06' E 009°51'0 0.0
2015-Apr-20 23:31N 44°06' E 009°51'0 0.0
2015-Apr-20 22:31N 44°06' E 009°51'0 0.0
2015-Apr-20 21:31N 44°06' E 009°51'0 0.0
2015-Apr-20 20:28N 44°06' E 009°51'0 0.0
2015-Apr-20 19:31N 44°06' E 009°51'0 0.0
2015-Apr-20 18:31N 44°06' E 009°51'0 0.0
2015-Apr-20 17:31N 44°06' E 009°51'0 0.0
2015-Apr-20 16:31N 44°06' E 009°51'0 0.0
2015-Apr-20 15:28N 44°06' E 009°51'0 0.0
2015-Apr-20 14:31N 44°06' E 009°51'0 0.0
2015-Apr-20 13:31N 44°06' E 009°51'0 0.0
2015-Apr-20 12:33N 44°06' E 009°51'0 0.0
2015-Apr-20 11:30N 44°06' E 009°51'0 0.0
2015-Apr-20 10:33N 44°06' E 009°51'0 0.0
2015-Apr-20 09:33N 44°06' E 009°51'0 0.0
2015-Apr-20 08:30N 44°06' E 009°51'0 0.0
2015-Apr-20 07:33N 44°06' E 009°51'0 0.0
2015-Apr-20 06:33N 44°06' E 009°51'0 0.0
2015-Apr-20 05:33N 44°06' E 009°51'0 0.0
2015-Apr-20 04:33N 44°06' E 009°51'0 0.0
2015-Apr-20 03:30N 44°06' E 009°51'0 0.0
2015-Apr-20 02:30N 44°06' E 009°51'0 0.0
2015-Apr-20 01:33N 44°06' E 009°51'0 0.0
2015-Apr-20 00:30N 44°06' E 009°51'0 0.0
2015-Apr-19 23:33N 44°06' E 009°51'0 0.0
2015-Apr-19 22:30N 44°06' E 009°51'0 0.0
2015-Apr-19 21:33N 44°06' E 009°51'0 0.0
2015-Apr-19 20:33N 44°06' E 009°51'0 0.0
2015-Apr-19 19:33N 44°06' E 009°51'0 0.0
2015-Apr-19 18:33N 44°06' E 009°51'0 0.0
2015-Apr-19 17:33N 44°06' E 009°51'0 0.0
2015-Apr-19 16:33N 44°06' E 009°51'0 0.0
2015-Apr-19 15:33N 44°06' E 009°51'0 0.0
2015-Apr-19 14:33N 44°06' E 009°51'0 0.0
2015-Apr-19 13:33N 44°06' E 009°51'0 0.0
2015-Apr-19 12:33N 44°06' E 009°51'0 0.0
2015-Apr-19 11:33N 44°06' E 009°51'0 0.0
2015-Apr-19 10:33N 44°06' E 009°51'0 0.0
2015-Apr-19 09:33N 44°06' E 009°51'0 0.0
2015-Apr-19 08:33N 44°06' E 009°51'0 0.0
2015-Apr-19 07:33N 44°06' E 009°51'0 0.0
2015-Apr-19 06:33N 44°06' E 009°51'0 0.0
2015-Apr-19 05:33N 44°06' E 009°51'0 0.0
2015-Apr-19 04:33N 44°06' E 009°51'0 0.0
2015-Apr-19 03:33N 44°06' E 009°51'0 0.0
2015-Apr-19 02:29N 44°06' E 009°51'0 0.0
2015-Apr-19 01:32N 44°06' E 009°51'0 0.0
2015-Apr-19 00:29N 44°06' E 009°51'0 0.0
2015-Apr-18 23:32N 44°06' E 009°51'0 0.0
2015-Apr-18 22:32N 44°06' E 009°51'0 0.0
2015-Apr-18 21:32N 44°06' E 009°51'2 2.0
2015-Apr-18 20:34N 44°04' E 009°52'8 7.7
2015-Apr-18 19:34N 43°56' E 009°53'1212.1
2015-Apr-18 18:33N 43°44' E 009°48'1212.2
2015-Apr-18 17:34N 43°33' E 009°44'1212.2
2015-Apr-18 16:34N 43°21' E 009°41'2612.4
2015-Apr-18 14:30N 42°55' E 009°41'  

Dump ship's entire track history